Time;durP1;ratioP1;P1;durP2;ratioP2;P2;SDS_P1;SDS_P2;PMS_P1;PMS_P2;Temp;Humidity;BMP_temperature;BMP_pressure;BME280_temperature;BME280_humidity;BME280_pressure;Samples;Min_cycle;Max_cycle;Signal;HPM_P1;HPM_P2
2023/04/06 00:01:37;;;;;;;7.93;5.07;;;0.90;1.00;;;;;;5072493;28;20102;-22
2023/04/06 00:04:03;;;;;;;9.10;5.30;;;0.80;1.00;;;;;;5075283;28;20056;-23
2023/04/06 00:06:29;;;;;;;10.73;5.00;;;0.80;1.00;;;;;;5072412;28;20040;-22
2023/04/06 00:08:56;;;;;;;9.80;5.60;;;0.70;1.00;;;;;;5074702;28;20044;-22
2023/04/06 00:11:22;;;;;;;8.80;5.20;;;0.70;6.50;;;;;;5074609;28;20048;-22
2023/04/06 00:13:48;;;;;;;9.47;5.77;;;0.70;64.20;;;;;;5074336;28;20482;-22
2023/04/06 00:16:13;;;;;;;7.73;5.47;;;0.60;92.70;;;;;;5070841;28;20072;-21
2023/04/06 00:18:40;;;;;;;8.63;6.00;;;0.60;77.70;;;;;;5054340;28;20067;-22
2023/04/06 00:21:06;;;;;;;9.93;6.60;;;0.50;99.90;;;;;;5054515;28;20048;-22
2023/04/06 00:23:32;;;;;;;9.43;5.50;;;0.50;99.90;;;;;;5054496;28;20056;-22
2023/04/06 00:25:57;;;;;;;10.07;6.17;;;0.50;99.90;;;;;;5054432;28;20037;-22
2023/04/06 00:28:26;;;;;;;10.37;5.63;;;0.50;99.90;;;;;;5054384;28;20083;-22
2023/04/06 00:30:55;;;;;;;10.83;6.50;;;0.50;99.90;;;;;;5054846;28;20041;-22
2023/04/06 00:33:21;;;;;;;8.97;6.00;;;0.40;99.90;;;;;;5053319;28;20048;-22
2023/04/06 00:35:47;;;;;;;11.90;6.30;;;0.40;99.90;;;;;;5054154;28;20041;-22
2023/04/06 00:38:13;;;;;;;8.80;6.23;;;0.40;99.90;;;;;;5053918;28;20060;-22
2023/04/06 00:40:39;;;;;;;8.57;6.03;;;0.40;99.90;;;;;;5054174;28;20407;-22
2023/04/06 00:43:09;;;;;;;9.23;6.67;;;0.40;99.90;;;;;;5053079;28;20045;-22
2023/04/06 00:45:35;;;;;;;10.13;6.07;;;0.30;99.90;;;;;;5054019;28;20045;-22
2023/04/06 00:48:01;;;;;;;10.37;6.20;;;0.30;99.90;;;;;;5053062;28;20064;-22
2023/04/06 00:50:28;;;;;;;13.43;7.23;;;0.20;99.90;;;;;;5053964;28;20080;-22
2023/04/06 00:52:55;;;;;;;11.30;6.67;;;0.20;99.90;;;;;;5053951;28;20045;-22
2023/04/06 00:55:20;;;;;;;10.73;7.00;;;0.10;99.90;;;;;;5054420;28;20430;-22
2023/04/06 00:57:47;;;;;;;12.10;7.73;;;0.10;99.90;;;;;;5053554;28;20075;-22
2023/04/06 01:00:13;;;;;;;10.53;6.70;;;0.10;99.90;;;;;;5053873;28;20061;-22
2023/04/06 01:02:39;;;;;;;14.17;8.03;;;0.10;1.00;;;;;;5053791;28;20040;-22
2023/04/06 01:05:06;;;;;;;9.47;6.97;;;0.10;1.00;;;;;;5053745;28;20041;-22
2023/04/06 01:07:32;;;;;;;11.97;7.63;;;0.00;1.00;;;;;;5053722;28;20110;-22
2023/04/06 01:09:58;;;;;;;14.80;7.17;;;0.00;1.00;;;;;;5053683;28;20048;-21
2023/04/06 01:12:24;;;;;;;12.87;7.97;;;0.20;1.00;;;;;;5053667;28;20052;-22
2023/04/06 01:14:50;;;;;;;13.07;7.13;;;0.00;1.00;;;;;;5052580;28;20056;-22
2023/04/06 01:17:16;;;;;;;9.20;7.03;;;0.00;1.00;;;;;;5053987;28;20064;-22
2023/04/06 01:19:42;;;;;;;13.93;7.53;;;0.20;1.00;;;;;;5053667;28;20399;-22
2023/04/06 01:22:08;;;;;;;12.53;7.07;;;0.40;1.00;;;;;;5053643;28;20131;-22
2023/04/06 01:24:34;;;;;;;14.83;10.43;;;0.00;1.00;;;;;;5053851;28;20098;-22
2023/04/06 01:27:01;;;;;;;13.73;7.80;;;-0.10;1.00;;;;;;5053525;28;20049;-21
2023/04/06 01:29:27;;;;;;;14.27;7.87;;;-0.10;92.90;;;;;;5053513;28;20053;-22
2023/04/06 01:31:52;;;;;;;13.90;7.57;;;0.00;56.70;;;;;;5052771;28;20049;-22
2023/04/06 01:34:18;;;;;;;13.03;7.40;;;0.00;15.50;;;;;;5052153;28;20518;-21
2023/04/06 01:36:44;;;;;;;13.80;7.17;;;0.00;29.70;;;;;;5053427;28;20041;-22
2023/04/06 01:39:10;;;;;;;12.97;7.10;;;0.00;93.00;;;;;;5053428;28;20059;-22
2023/04/06 01:41:36;;;;;;;10.47;6.67;;;0.00;87.60;;;;;;5053377;28;20501;-21
2023/04/06 01:44:02;;;;;;;13.20;7.60;;;0.00;82.90;;;;;;5053141;28;20491;-22
2023/04/06 01:46:28;;;;;;;13.40;7.03;;;0.00;78.50;;;;;;5053393;28;20118;-21
2023/04/06 01:48:54;;;;;;;8.97;6.37;;;0.00;99.90;;;;;;5053333;28;20579;-22
2023/04/06 01:51:20;;;;;;;10.63;6.90;;;0.00;99.30;;;;;;5053304;28;20049;-22
2023/04/06 01:53:45;;;;;;;13.13;7.10;;;0.00;99.10;;;;;;5055031;28;20060;-22
2023/04/06 01:56:11;;;;;;;10.53;7.47;;;-0.10;99.90;;;;;;5055968;28;20080;-21
2023/04/06 01:58:37;;;;;;;14.27;7.60;;;-0.10;99.90;;;;;;5057167;28;20053;-22
2023/04/06 02:01:03;;;;;;;11.97;7.20;;;-0.20;99.90;;;;;;5057153;28;20048;-22
2023/04/06 02:03:28;;;;;;;10.83;7.20;;;-0.20;99.90;;;;;;5055969;28;20122;-22
2023/04/06 02:05:54;;;;;;;11.17;7.00;;;-0.20;99.90;;;;;;5057126;28;20040;-22
2023/04/06 02:08:20;;;;;;;10.47;7.07;;;-0.30;99.90;;;;;;5057044;28;20063;-22
2023/04/06 02:10:46;;;;;;;11.17;6.80;;;-0.20;99.90;;;;;;5055825;28;20079;-22
2023/04/06 02:13:12;;;;;;;11.57;7.43;;;-0.30;99.90;;;;;;5056977;28;20052;-22
2023/04/06 02:15:38;;;;;;;10.17;6.93;;;-0.40;99.90;;;;;;5057382;28;20037;-22
2023/04/06 02:18:04;;;;;;;13.07;7.10;;;-0.30;99.90;;;;;;5056836;28;20067;-21
2023/04/06 02:20:29;;;;;;;10.40;6.47;;;-0.40;99.90;;;;;;5055655;28;20403;-22
2023/04/06 02:22:59;;;;;;;8.90;6.57;;;-0.40;99.90;;;;;;5039188;28;20048;-21
2023/04/06 02:25:25;;;;;;;9.07;6.40;;;-0.10;99.90;;;;;;5057258;28;20041;-21
2023/04/06 02:27:50;;;;;;;12.00;7.63;;;-0.40;99.90;;;;;;5057211;28;20055;-22
2023/04/06 02:30:16;;;;;;;17.47;7.13;;;-0.40;99.90;;;;;;5055640;28;20044;-21
2023/04/06 02:32:42;;;;;;;11.03;7.47;;;-0.40;99.90;;;;;;5056610;28;20049;-22
2023/04/06 02:35:08;;;;;;;8.90;5.97;;;-0.30;99.90;;;;;;5056726;28;20044;-21
2023/04/06 02:37:34;;;;;;;9.90;7.03;;;-0.30;99.90;;;;;;5057067;28;20388;-22
2023/04/06 02:40:00;;;;;;;10.03;6.90;;;0.00;99.90;;;;;;5055478;28;20053;-22
2023/04/06 02:42:25;;;;;;;11.33;7.07;;;-0.40;99.90;;;;;;5056409;28;20059;-21
2023/04/06 02:44:51;;;;;;;11.93;7.53;;;0.20;99.90;;;;;;5055381;28;20520;-22
2023/04/06 02:47:17;;;;;;;12.37;7.03;;;0.10;99.90;;;;;;5056314;28;20495;-22
2023/04/06 02:49:43;;;;;;;10.07;7.20;;;0.00;99.90;;;;;;5056243;28;20049;-21
2023/04/06 02:52:08;;;;;;;12.00;7.37;;;-0.30;99.90;;;;;;5056229;28;20041;-21
2023/04/06 02:54:34;;;;;;;10.93;6.43;;;-0.20;99.90;;;;;;5054956;28;20045;-21
2023/04/06 02:57:00;;;;;;;12.70;7.70;;;-0.40;99.90;;;;;;5054904;28;20547;-21
2023/04/06 02:59:26;;;;;;;14.20;7.60;;;-0.50;99.90;;;;;;5056077;28;20088;-21
2023/04/06 03:01:52;;;;;;;11.97;6.73;;;0.00;99.90;;;;;;5056031;28;20080;-21
2023/04/06 03:04:18;;;;;;;11.27;7.17;;;-0.60;99.90;;;;;;5055846;28;20388;-22
2023/04/06 03:06:44;;;;;;;9.97;6.80;;;-0.60;99.90;;;;;;5054020;28;20443;-21
2023/04/06 03:09:09;;;;;;;11.33;7.10;;;-0.60;99.90;;;;;;5055876;28;20380;-22
2023/04/06 03:11:35;;;;;;;11.77;7.20;;;-0.70;99.90;;;;;;5055841;28;20128;-21
2023/04/06 03:14:01;;;;;;;14.43;7.40;;;-0.70;99.90;;;;;;5055749;28;20040;-21
2023/04/06 03:16:27;;;;;;;12.80;7.67;;;-0.30;99.90;;;;;;5055673;28;20037;-22
2023/04/06 03:18:52;;;;;;;11.40;7.93;;;-0.50;99.90;;;;;;5037319;28;20056;-21
2023/04/06 03:21:19;;;;;;;11.43;7.40;;;-0.60;99.90;;;;;;5055985;28;20090;-21
2023/04/06 03:23:45;;;;;;;11.07;7.03;;;-0.50;1.00;;;;;;5054675;28;20052;-21
2023/04/06 03:26:11;;;;;;;11.90;7.33;;;-0.70;99.90;;;;;;5055551;28;20045;-21
2023/04/06 03:28:37;;;;;;;12.80;7.23;;;-0.70;99.90;;;;;;5056054;28;20048;-21
2023/04/06 03:31:02;;;;;;;13.93;7.80;;;-0.70;1.00;;;;;;5056032;28;20084;-21
2023/04/06 03:33:28;;;;;;;13.27;8.07;;;-0.70;1.00;;;;;;5055427;28;20044;-21
2023/04/06 03:35:57;;;;;;;10.83;7.60;;;-0.80;1.00;;;;;;5054706;28;20129;-21
2023/04/06 03:38:22;;;;;;;13.67;7.70;;;-0.40;1.00;;;;;;5055157;28;20157;-21
2023/04/06 03:40:48;;;;;;;12.00;8.20;;;0.10;1.00;;;;;;5055323;28;20048;-21
2023/04/06 03:43:14;;;;;;;13.40;8.07;;;-0.30;1.00;;;;;;5055226;28;20060;-21
2023/04/06 03:45:40;;;;;;;13.43;8.23;;;-0.60;1.00;;;;;;5055196;28;20041;-21
2023/04/06 03:48:05;;;;;;;16.03;7.90;;;-0.70;1.00;;;;;;5055682;28;20128;-21
2023/04/06 03:50:31;;;;;;;14.87;8.67;;;-0.90;1.00;;;;;;5054780;28;20037;-21
2023/04/06 03:52:57;;;;;;;13.23;8.50;;;-0.80;1.00;;;;;;5055312;28;20136;-21
2023/04/06 03:55:23;;;;;;;13.30;7.93;;;-1.10;1.00;;;;;;5054936;28;20060;-21
2023/04/06 03:57:48;;;;;;;13.13;8.37;;;-0.90;1.00;;;;;;5054956;28;20056;-21
2023/04/06 04:00:15;;;;;;;12.73;7.70;;;-0.70;1.00;;;;;;5054956;28;20041;-21
2023/04/06 04:02:41;;;;;;;13.57;8.27;;;-1.00;1.00;;;;;;5037231;28;20055;-22
2023/04/06 04:05:08;;;;;;;11.23;7.83;;;-1.00;1.00;;;;;;5054703;28;20052;-21
2023/04/06 04:07:34;;;;;;;12.20;8.03;;;-1.20;1.00;;;;;;5054728;28;20048;-21
2023/04/06 04:10:00;;;;;;;14.03;8.30;;;-1.00;1.00;;;;;;5020258;28;20072;-21
2023/04/06 04:12:26;;;;;;;11.10;7.73;;;-0.60;1.00;;;;;;5054701;28;20045;-21
2023/04/06 04:14:51;;;;;;;10.57;7.37;;;-1.20;1.00;;;;;;5054632;28;20384;-21
2023/04/06 04:17:17;;;;;;;12.73;8.33;;;-0.50;27.90;;;;;;5053802;28;20045;-21
2023/04/06 04:19:43;;;;;;;14.43;7.87;;;-0.60;2.10;;;;;;5054009;28;20061;-21
2023/04/06 04:22:09;;;;;;;12.03;6.77;;;-1.00;1.00;;;;;;5054784;28;20060;-21
2023/04/06 04:24:35;;;;;;;13.43;7.50;;;-0.50;1.00;;;;;;5054479;28;20037;-21
2023/04/06 04:27:00;;;;;;;29.23;8.53;;;-0.50;1.00;;;;;;5036892;28;20480;-21
2023/04/06 04:29:27;;;;;;;14.43;8.17;;;-0.80;1.00;;;;;;5054372;28;20049;-21
2023/04/06 04:31:52;;;;;;;11.57;6.60;;;-0.90;1.00;;;;;;5054301;28;20215;-21
2023/04/06 04:34:23;;;;;;;12.23;7.27;;;-0.30;1.00;;;;;;5054246;28;20048;-21
2023/04/06 04:36:49;;;;;;;10.00;7.20;;;-0.90;1.00;;;;;;5055134;28;20049;-21
2023/04/06 04:39:15;;;;;;;11.93;7.03;;;-0.80;1.00;;;;;;5054174;28;20502;-21
2023/04/06 04:41:41;;;;;;;10.03;6.70;;;-0.90;1.00;;;;;;5054162;28;20045;-21
2023/04/06 04:44:07;;;;;;;10.37;7.37;;;-1.00;1.00;;;;;;5053546;28;20440;-21
2023/04/06 04:46:33;;;;;;;9.80;6.53;;;-0.80;1.00;;;;;;5052761;28;20045;-21
2023/04/06 04:48:59;;;;;;;12.10;7.83;;;-1.10;1.00;;;;;;5036204;28;20048;-21
2023/04/06 04:51:25;;;;;;;11.97;6.80;;;-1.00;1.00;;;;;;5053245;28;20049;-21
2023/04/06 04:53:51;;;;;;;12.87;7.13;;;-0.50;1.00;;;;;;5053763;28;20052;-21
2023/04/06 04:56:16;;;;;;;11.97;7.27;;;-0.50;1.00;;;;;;5053540;28;20175;-21
2023/04/06 04:58:42;;;;;;;10.67;7.43;;;-0.60;1.00;;;;;;5035799;28;20254;-21
2023/04/06 05:01:08;;;;;;;11.93;7.27;;;-1.20;1.00;;;;;;5052628;28;20110;-21
2023/04/06 05:03:35;;;;;;;12.10;7.70;;;-0.80;1.00;;;;;;5053652;28;20081;-21
2023/04/06 05:06:01;;;;;;;10.53;7.57;;;-0.40;1.00;;;;;;5053882;28;20120;-21
2023/04/06 05:08:27;;;;;;;13.53;7.53;;;-0.90;1.00;;;;;;5052402;28;20044;-21
2023/04/06 05:10:53;;;;;;;13.57;8.17;;;-0.70;1.00;;;;;;5053609;28;20052;-21
2023/04/06 05:13:19;;;;;;;10.50;7.03;;;-1.00;1.00;;;;;;5053615;28;20044;-21
2023/04/06 05:15:45;;;;;;;10.53;7.00;;;-0.20;1.00;;;;;;5053690;28;20045;-21
2023/04/06 05:18:11;;;;;;;11.77;7.13;;;-0.80;1.00;;;;;;5053152;28;20059;-20
2023/04/06 05:20:38;;;;;;;11.00;7.40;;;-0.70;1.00;;;;;;5054160;28;20056;-21
2023/04/06 05:23:04;;;;;;;10.63;7.30;;;-0.30;1.00;;;;;;5053731;28;20041;-21
2023/04/06 05:25:31;;;;;;;10.30;7.47;;;-0.70;1.00;;;;;;5053591;28;20131;-21
2023/04/06 05:27:57;;;;;;;11.30;6.60;;;-0.70;1.00;;;;;;5053086;28;20049;-21
2023/04/06 05:30:23;;;;;;;8.23;6.30;;;-0.50;1.00;;;;;;5053374;28;20122;-21
2023/04/06 05:32:50;;;;;;;10.10;6.73;;;-0.30;1.00;;;;;;5053929;28;20052;-21
2023/04/06 05:35:17;;;;;;;11.13;7.43;;;0.10;1.00;;;;;;5053263;28;20128;-21
2023/04/06 05:37:43;;;;;;;11.17;6.70;;;-0.30;1.00;;;;;;5053459;28;20084;-21
2023/04/06 05:40:09;;;;;;;10.10;6.43;;;-0.10;1.00;;;;;;5053340;28;20045;-21
2023/04/06 05:42:42;;;;;;;13.73;7.63;;;-0.40;99.90;;;;;;5052133;28;20053;-21
2023/04/06 05:45:10;;;;;;;13.65;6.55;;;-0.10;99.90;;;;;;5035718;28;20136;-21
2023/04/06 05:47:37;;;;;;;9.70;6.50;;;-0.10;99.90;;;;;;5053833;28;20195;-21
2023/04/06 05:50:03;;;;;;;11.80;6.40;;;-0.10;99.90;;;;;;5054106;28;20053;-21
2023/04/06 05:52:29;;;;;;;9.17;6.03;;;-0.10;99.90;;;;;;5052921;28;20502;-21
2023/04/06 05:54:55;;;;;;;10.63;6.87;;;-0.20;99.90;;;;;;5053422;28;20170;-21
2023/04/06 05:57:21;;;;;;;8.83;6.53;;;-0.10;99.90;;;;;;5052023;28;20521;-21
2023/04/06 05:59:47;;;;;;;9.47;6.43;;;0.00;99.90;;;;;;5053160;28;20048;-21
2023/04/06 06:02:13;;;;;;;9.90;6.87;;;0.00;99.90;;;;;;5053376;28;20049;-21
2023/04/06 06:04:39;;;;;;;11.00;7.30;;;0.20;99.90;;;;;;5053672;28;20045;-21
2023/04/06 06:07:05;;;;;;;12.70;7.70;;;0.20;99.90;;;;;;5053094;28;20157;-21
2023/04/06 06:09:31;;;;;;;11.10;6.70;;;0.30;99.90;;;;;;5053065;28;20091;-21
2023/04/06 06:11:57;;;;;;;12.87;8.77;;;0.80;99.90;;;;;;5052082;28;20422;-21
2023/04/06 06:14:23;;;;;;;14.03;6.47;;;0.30;99.90;;;;;;5052960;28;20053;-21
2023/04/06 06:16:49;;;;;;;10.60;6.37;;;0.40;99.90;;;;;;5052860;28;20044;-21
2023/04/06 06:19:14;;;;;;;11.20;7.00;;;0.60;99.90;;;;;;5052636;28;20520;-21
2023/04/06 06:21:40;;;;;;;11.47;6.80;;;0.80;99.90;;;;;;5052851;28;20049;-21
2023/04/06 06:24:07;;;;;;;11.37;6.90;;;1.20;99.90;;;;;;5053520;28;20435;-21
2023/04/06 06:26:35;;;;;;;11.43;6.80;;;0.90;99.90;;;;;;5052807;28;20487;-21
2023/04/06 06:29:01;;;;;;;10.13;6.80;;;1.00;99.90;;;;;;5052936;28;20045;-22
2023/04/06 06:31:27;;;;;;;11.67;7.03;;;1.10;93.00;;;;;;5053475;28;20049;-22
2023/04/06 06:33:53;;;;;;;11.17;7.30;;;1.20;91.10;;;;;;5053502;28;20057;-22
2023/04/06 06:36:18;;;;;;;10.80;6.70;;;1.20;81.50;;;;;;5035494;28;20128;-22
2023/04/06 06:38:44;;;;;;;12.63;6.47;;;1.30;40.90;;;;;;5052281;28;20044;-22
2023/04/06 06:41:11;;;;;;;11.77;6.60;;;1.40;52.20;;;;;;5053273;28;20136;-22
2023/04/06 06:43:37;;;;;;;10.97;7.57;;;1.50;40.30;;;;;;5056320;28;20064;-22
2023/04/06 06:46:04;;;;;;;14.00;8.20;;;1.50;21.40;;;;;;5056809;28;20037;-22
2023/04/06 06:48:30;;;;;;;14.70;9.63;;;1.60;1.00;;;;;;5056254;28;20055;-22
2023/04/06 06:50:56;;;;;;;13.90;7.97;;;1.70;1.00;;;;;;5056247;28;20052;-22
2023/04/06 06:53:23;;;;;;;12.23;8.00;;;1.80;1.00;;;;;;5056095;28;20055;-22
2023/04/06 06:55:49;;;;;;;10.43;7.83;;;1.90;11.20;;;;;;5056081;28;20092;-22
2023/04/06 06:58:15;;;;;;;11.47;7.33;;;2.10;1.00;;;;;;5056571;28;20084;-22
2023/04/06 07:00:41;;;;;;;12.07;7.87;;;2.20;1.00;;;;;;5055747;28;20474;-22
2023/04/06 07:03:07;;;;;;;10.67;7.40;;;2.30;1.00;;;;;;5056014;28;20084;-22
2023/04/06 07:05:33;;;;;;;11.77;7.17;;;2.40;1.00;;;;;;5056249;28;20053;-22
2023/04/06 07:07:58;;;;;;;10.17;7.30;;;2.60;1.00;;;;;;5055944;28;20159;-22
2023/04/06 07:10:25;;;;;;;13.27;6.87;;;2.70;1.00;;;;;;5056485;28;20044;-22
2023/04/06 07:12:51;;;;;;;10.07;7.03;;;2.80;1.00;;;;;;5056135;28;20391;-22
2023/04/06 07:15:17;;;;;;;9.77;7.17;;;3.00;1.00;;;;;;5055794;28;20067;-22
2023/04/06 07:17:46;;;;;;;11.10;7.47;;;3.10;99.90;;;;;;5055771;28;20056;-22
2023/04/06 07:20:12;;;;;;;12.37;7.20;;;3.30;99.90;;;;;;5053971;28;20057;-22
2023/04/06 07:22:40;;;;;;;11.10;6.70;;;3.40;99.90;;;;;;5055630;28;20041;-22
2023/04/06 07:25:07;;;;;;;12.70;7.70;;;3.60;99.90;;;;;;5054904;28;20414;-22
2023/04/06 07:27:32;;;;;;;9.90;6.63;;;3.80;99.90;;;;;;5055580;28;20232;-22
2023/04/06 07:29:58;;;;;;;14.73;7.20;;;4.00;99.90;;;;;;5055476;28;20092;-23
2023/04/06 07:32:24;;;;;;;10.00;7.07;;;4.10;99.90;;;;;;5055502;28;20076;-23
2023/04/06 07:34:50;;;;;;;10.93;7.13;;;4.30;99.90;;;;;;5055380;28;20146;-22
2023/04/06 07:37:15;;;;;;;11.73;8.30;;;4.50;99.90;;;;;;5055388;28;20091;-22
2023/04/06 07:39:41;;;;;;;12.10;7.73;;;4.70;35.60;;;;;;5055600;28;20056;-23
2023/04/06 07:42:07;;;;;;;11.67;6.97;;;4.80;1.00;;;;;;5054338;28;20041;-23
2023/04/06 07:44:33;;;;;;;11.43;7.20;;;5.00;1.00;;;;;;5055135;28;20049;-23
2023/04/06 07:46:58;;;;;;;12.20;7.43;;;5.10;99.90;;;;;;5055501;28;20049;-23
2023/04/06 07:49:25;;;;;;;11.97;7.03;;;5.20;99.90;;;;;;5055245;28;20052;-23
2023/04/06 07:51:51;;;;;;;10.63;7.60;;;5.40;99.90;;;;;;5054800;28;20482;-22
2023/04/06 07:54:16;;;;;;;13.00;7.93;;;5.50;99.90;;;;;;5055077;28;20103;-23
2023/04/06 07:56:42;;;;;;;12.82;8.43;;;5.60;99.90;;;;;;5055474;28;20048;-22
2023/04/06 07:59:08;;;;;;;11.50;7.80;;;5.80;99.90;;;;;;5054949;28;20060;-22
2023/04/06 08:01:34;;;;;;;12.00;7.78;;;5.90;1.00;;;;;;5054904;28;20094;-23
2023/04/06 08:04:02;;;;;;;10.35;7.18;;;6.10;1.00;;;;;;5053869;28;20056;-23
2023/04/06 08:06:28;;;;;;;10.70;7.53;;;6.30;1.00;;;;;;5054785;28;20055;-23
2023/04/06 08:08:54;;;;;;;13.52;8.32;;;6.50;1.00;;;;;;5054580;28;20114;-23
2023/04/06 08:11:20;;;;;;;11.13;7.25;;;6.60;1.00;;;;;;5054687;28;20048;-23
2023/04/06 08:13:46;;;;;;;12.20;7.85;;;6.80;1.00;;;;;;5054931;28;20099;-23
2023/04/06 08:16:12;;;;;;;10.73;7.00;;;7.00;99.90;;;;;;5054604;28;20490;-23
2023/04/06 08:18:38;;;;;;;10.25;6.88;;;7.20;99.90;;;;;;5053291;28;20059;-23
2023/04/06 08:21:03;;;;;;;9.73;6.95;;;7.30;99.90;;;;;;5055176;28;20095;-23
2023/04/06 08:23:29;;;;;;;11.45;7.88;;;7.40;60.00;;;;;;5054486;28;20103;-23
2023/04/06 08:25:55;;;;;;;10.48;6.60;;;7.60;1.00;;;;;;5054130;28;20040;-23
2023/04/06 08:28:21;;;;;;;13.73;8.07;;;7.80;1.00;;;;;;5054437;28;20419;-23
2023/04/06 08:30:47;;;;;;;12.48;7.90;;;7.90;99.90;;;;;;5054333;28;20048;-23
2023/04/06 08:33:13;;;;;;;11.10;7.93;;;8.00;1.00;;;;;;5054164;28;20056;-23
2023/04/06 08:35:39;;;;;;;11.35;7.25;;;8.30;99.90;;;;;;5054210;28;20383;-23
2023/04/06 08:38:06;;;;;;;10.43;6.88;;;8.40;99.90;;;;;;5054212;28;20037;-23
2023/04/06 08:40:37;;;;;;;11.50;7.28;;;8.60;99.90;;;;;;5053023;28;20049;-23
2023/04/06 08:43:08;;;;;;;9.77;7.13;;;8.80;99.90;;;;;;5054407;28;20056;-23
2023/04/06 08:45:35;;;;;;;10.55;7.47;;;9.10;99.90;;;;;;5054079;28;20485;-23
2023/04/06 08:48:03;;;;;;;12.82;7.22;;;9.20;99.90;;;;;;5054574;28;20131;-23
2023/04/06 08:50:33;;;;;;;11.00;7.63;;;9.20;99.90;;;;;;5054277;28;20110;-23
2023/04/06 08:53:01;;;;;;;12.02;6.78;;;9.40;99.90;;;;;;5054580;28;20041;-23
2023/04/06 08:55:27;;;;;;;12.38;6.90;;;9.80;99.90;;;;;;5053915;28;20037;-23
2023/04/06 08:57:55;;;;;;;9.65;6.55;;;10.20;95.70;;;;;;5054743;28;20134;-24
2023/04/06 09:00:21;;;;;;;9.73;6.72;;;10.40;80.80;;;;;;5053746;28;20411;-22
2023/04/06 09:02:48;;;;;;;11.00;6.97;;;11.20;3.70;;;;;;5053422;28;20044;-23
2023/04/06 09:05:15;;;;;;;9.88;6.75;;;11.20;66.50;;;;;;5053593;28;20390;-23
2023/04/06 09:07:41;;;;;;;9.65;6.85;;;11.70;1.90;;;;;;5053750;28;20127;-23
2023/04/06 09:10:07;;;;;;;12.27;8.57;;;11.70;13.60;;;;;;5053750;28;20123;-23
2023/04/06 09:12:34;;;;;;;10.88;7.78;;;11.70;1.00;;;;;;5053658;28;20079;-23
2023/04/06 09:15:01;;;;;;;11.85;7.20;;;11.40;1.00;;;;;;5053554;28;20052;-23
2023/04/06 09:17:29;;;;;;;10.45;8.02;;;11.30;1.00;;;;;;5053700;28;20055;-23
2023/04/06 09:19:56;;;;;;;9.80;7.75;;;11.20;1.00;;;;;;5051931;28;20092;-23
2023/04/06 09:22:24;;;;;;;13.05;7.90;;;11.30;1.00;;;;;;5053622;28;20481;-23
2023/04/06 09:24:52;;;;;;;12.35;8.85;;;11.20;1.00;;;;;;5052533;28;20052;-23
2023/04/06 09:27:30;;;;;;;13.25;8.50;;;11.30;1.00;;;;;;5054084;28;20049;-23
2023/04/06 09:30:16;;;;;;;11.18;8.18;;;11.20;1.00;;;;;;5053572;28;20052;-23
2023/04/06 09:32:49;;;;;;;11.80;8.30;;;11.30;1.00;;;;;;5052303;28;20103;-23
2023/04/06 09:35:15;;;;;;;13.95;8.27;;;11.30;1.00;;;;;;5053350;28;20487;-23
2023/04/06 09:37:42;;;;;;;13.20;8.95;;;11.30;1.00;;;;;;5054009;28;20087;-23
2023/04/06 09:40:09;;;;;;;12.50;8.82;;;11.30;1.00;;;;;;5052493;28;20049;-23
2023/04/06 09:42:35;;;;;;;12.52;8.60;;;11.30;1.00;;;;;;5053980;28;20127;-23
2023/04/06 09:45:03;;;;;;;13.48;9.70;;;11.30;1.00;;;;;;5054001;28;20435;-23
2023/04/06 09:47:30;;;;;;;12.38;8.95;;;11.50;1.00;;;;;;5053373;28;20049;-23
2023/04/06 09:49:59;;;;;;;16.42;9.50;;;11.70;1.00;;;;;;5053293;28;20053;-23
2023/04/06 09:52:36;;;;;;;13.52;8.80;;;11.60;1.00;;;;;;5053870;28;20072;-23
2023/04/06 09:55:04;;;;;;;11.57;8.32;;;11.80;1.00;;;;;;5052977;28;20541;-23
2023/04/06 09:57:37;;;;;;;13.43;9.35;;;12.10;1.00;;;;;;5054008;28;20049;-23
2023/04/06 10:00:14;;;;;;;17.20;11.13;;;12.50;1.00;;;;;;5053118;28;20418;-23
2023/04/06 10:03:07;;;;;;;12.13;8.85;;;12.50;1.00;;;;;;5053166;28;20127;-23
2023/04/06 10:05:51;;;;;;;14.80;9.55;;;12.50;1.00;;;;;;5053564;28;20127;-23
2023/04/06 10:08:19;;;;;;;15.82;10.25;;;12.40;1.00;;;;;;5053481;28;20142;-23
2023/04/06 10:10:46;;;;;;;14.80;9.52;;;12.30;1.00;;;;;;5053126;28;20124;-23
2023/04/06 10:13:11;;;;;;;15.82;10.48;;;12.30;1.00;;;;;;5053149;28;20448;-23
2023/04/06 10:15:39;;;;;;;16.95;10.45;;;12.30;1.00;;;;;;5055589;28;20130;-23
2023/04/06 10:18:05;;;;;;;16.25;10.65;;;12.20;1.00;;;;;;5056526;28;20045;-22
2023/04/06 10:20:49;;;;;;;13.63;10.55;;;12.40;1.00;;;;;;5057197;28;20052;-23
2023/04/06 10:23:35;;;;;;;16.60;10.65;;;12.70;1.00;;;;;;5056515;28;20049;-23
2023/04/06 10:26:02;;;;;;;16.15;10.75;;;13.20;1.00;;;;;;5055938;28;20041;-24
2023/04/06 10:28:35;;;;;;;15.63;10.30;;;13.50;1.00;;;;;;5056708;28;20052;-24
2023/04/06 10:31:05;;;;;;;15.95;10.50;;;14.00;1.00;;;;;;5055413;28;20049;-24
2023/04/06 10:33:31;;;;;;;16.63;11.40;;;14.50;1.00;;;;;;5055660;28;20091;-24
2023/04/06 10:35:57;;;;;;;21.48;12.73;;;14.80;1.00;;;;;;5056520;28;20092;-24
2023/04/06 10:38:37;;;;;;;17.63;13.02;;;14.70;1.00;;;;;;5055325;28;20106;-24
2023/04/06 10:41:11;;;;;;;18.48;12.95;;;14.60;1.00;;;;;;5056441;28;20068;-22
2023/04/06 10:43:39;;;;;;;20.65;13.10;;;14.30;1.00;;;;;;5056994;28;20368;-22
2023/04/06 10:46:06;;;;;;;22.45;14.05;;;13.90;1.00;;;;;;5056360;28;20391;-22
2023/04/06 10:48:46;;;;;;;18.60;13.57;;;13.70;1.00;;;;;;5056339;28;20077;-22
2023/04/06 10:51:17;;;;;;;20.05;13.40;;;13.60;1.00;;;;;;5055283;28;20109;-22
2023/04/06 10:53:46;;;;;;;20.80;13.95;;;13.40;1.00;;;;;;5056247;28;20087;-22
2023/04/06 10:56:14;;;;;;;23.58;16.77;;;13.30;1.00;;;;;;5054962;28;20045;-22
2023/04/06 10:58:48;;;;;;;22.73;15.68;;;13.30;1.00;;;;;;5054810;28;20514;-22
2023/04/06 11:01:22;;;;;;;23.83;16.95;;;13.50;1.00;;;;;;5055136;28;20041;-22
2023/04/06 11:03:49;;;;;;;24.42;17.35;;;13.70;1.00;;;;;;5056621;28;20049;-22
2023/04/06 11:06:23;;;;;;;27.38;17.80;;;13.90;1.00;;;;;;5055993;28;20051;-22
2023/04/06 11:08:50;;;;;;;22.17;16.58;;;13.90;1.00;;;;;;5056291;28;20379;-22
2023/04/06 11:11:18;;;;;;;24.90;17.08;;;14.00;1.00;;;;;;5056736;28;20057;-22
2023/04/06 11:13:46;;;;;;;25.83;17.98;;;14.20;1.00;;;;;;5055488;28;20518;-22
2023/04/06 11:16:17;;;;;;;28.23;20.55;;;14.60;1.00;;;;;;5055771;28;20368;-22
2023/04/06 11:18:52;;;;;;;32.25;20.45;;;14.90;1.00;;;;;;5056225;28;20061;-22
2023/04/06 11:21:32;;;;;;;35.88;21.13;;;14.80;1.00;;;;;;5055188;28;20092;-22
2023/04/06 11:24:12;;;;;;;39.22;20.90;;;14.80;1.00;;;;;;5055732;28;20067;-22
2023/04/06 11:26:48;;;;;;;32.88;22.80;;;14.70;1.00;;;;;;5055648;28;20041;-23
2023/04/06 11:29:16;;;;;;;27.67;21.17;;;14.50;1.00;;;;;;5056285;28;20475;-22
2023/04/06 11:31:47;;;;;;;28.88;21.98;;;14.30;1.00;;;;;;5055533;28;20215;-22
2023/04/06 11:34:16;;;;;;;26.58;19.80;;;14.00;1.00;;;;;;5054525;28;20514;-22
2023/04/06 11:36:44;;;;;;;32.70;22.98;;;13.60;1.00;;;;;;5055400;28;20045;-22
2023/04/06 11:39:12;;;;;;;30.67;21.52;;;14.00;1.00;;;;;;5055392;28;20122;-23
2023/04/06 11:41:38;;;;;;;29.48;21.05;;;14.30;1.00;;;;;;5055406;28;20045;-22
2023/04/06 11:44:05;;;;;;;28.15;20.95;;;14.30;1.00;;;;;;5055864;28;20040;-23
2023/04/06 11:46:32;;;;;;;29.65;20.48;;;14.40;1.00;;;;;;5055241;28;20095;-22
2023/04/06 11:49:02;;;;;;;29.02;20.85;;;14.30;1.00;;;;;;5055187;28;20040;-23
2023/04/06 11:51:28;;;;;;;33.17;19.33;;;14.20;1.00;;;;;;5055137;28;20080;-22
2023/04/06 11:53:55;;;;;;;27.27;21.88;;;14.10;1.00;;;;;;5055089;28;20099;-22
2023/04/06 11:56:29;;;;;;;30.77;20.85;;;13.90;1.00;;;;;;5054059;28;20543;-22
2023/04/06 11:58:56;;;;;;;28.33;17.80;;;14.00;1.00;;;;;;5054981;28;20041;-22
2023/04/06 12:01:22;;;;;;;26.15;17.80;;;13.60;1.00;;;;;;5054721;28;20494;-22
2023/04/06 12:03:48;;;;;;;29.00;21.38;;;12.90;1.00;;;;;;5054915;28;20056;-23
2023/04/06 12:06:15;;;;;;;28.95;21.08;;;12.50;1.00;;;;;;5055425;28;20107;-22
2023/04/06 12:08:40;;;;;;;29.45;20.67;;;12.80;1.00;;;;;;5053650;28;20049;-22
2023/04/06 12:11:06;;;;;;;25.42;16.65;;;12.90;1.00;;;;;;5055336;28;20048;-22
2023/04/06 12:13:32;;;;;;;28.38;19.95;;;12.80;1.00;;;;;;5053603;28;20462;-22
2023/04/06 12:15:58;;;;;;;25.90;18.90;;;12.80;1.00;;;;;;5054637;28;20387;-22
2023/04/06 12:18:25;;;;;;;30.00;21.50;;;12.90;1.00;;;;;;5054257;28;20102;-22
2023/04/06 12:20:51;;;;;;;59.35;30.33;;;13.00;1.00;;;;;;5054503;28;20091;-22
2023/04/06 12:23:18;;;;;;;31.08;22.08;;;13.00;1.00;;;;;;5054854;28;20052;-22
2023/04/06 12:25:44;;;;;;;31.52;21.58;;;13.00;1.00;;;;;;5054792;28;20077;-22
2023/04/06 12:28:11;;;;;;;31.02;21.25;;;13.10;1.00;;;;;;5054989;28;20505;-22
2023/04/06 12:30:37;;;;;;;34.15;23.65;;;13.00;1.00;;;;;;5054478;28;20114;-22
2023/04/06 12:33:02;;;;;;;33.38;23.52;;;13.10;1.00;;;;;;5054621;28;20506;-23
2023/04/06 12:35:28;;;;;;;36.40;23.77;;;13.00;1.00;;;;;;5054754;28;20045;-22
2023/04/06 12:37:54;;;;;;;53.78;36.30;;;12.60;1.00;;;;;;5053446;28;20037;-22
2023/04/06 12:40:20;;;;;;;36.80;24.80;;;12.30;1.00;;;;;;5054131;28;20056;-22
2023/04/06 12:42:46;;;;;;;29.35;20.90;;;12.50;1.00;;;;;;5037227;28;20129;-22
2023/04/06 12:45:12;;;;;;;27.40;19.27;;;12.70;1.00;;;;;;5054167;28;20063;-22